Time;durP1;ratioP1;P1;durP2;ratioP2;P2;SDS_P1;SDS_P2;PMS_P1;PMS_P2;Temp;Humidity;BMP_temperature;BMP_pressure;BME280_temperature;BME280_humidity;BME280_pressure;Samples;Min_cycle;Max_cycle;Signal;HPM_P1;HPM_P2
2023/09/10 00:01:17;;;;;;;43.28;27.70;;;;;;;21.21;98.99;101775.34;6063813;19;20318;-71
2023/09/10 00:03:22;;;;;;;40.75;26.02;;;;;;;21.22;98.99;101777.03;6068134;19;20082;-74
2023/09/10 00:05:33;;;;;;;36.88;24.00;;;;;;;21.20;99.01;101771.84;6070782;19;20014;-70
2023/09/10 00:07:39;;;;;;;39.17;25.65;;;;;;;21.16;99.76;101780.16;6063750;19;20250;-71
2023/09/10 00:09:45;;;;;;;37.10;23.38;;;;;;;21.15;99.31;101784.66;6058313;19;20088;-71
2023/09/10 00:11:51;;;;;;;37.30;23.88;;;;;;;21.11;99.25;101775.13;6062593;19;20522;-71
2023/09/10 00:13:59;;;;;;;35.78;23.63;;;;;;;21.13;99.99;101783.06;6067531;19;20003;-71
2023/09/10 00:16:05;;;;;;;33.60;23.92;;;;;;;21.11;99.24;101779.63;6057452;19;20010;-73
2023/09/10 00:18:11;;;;;;;39.90;27.20;;;;;;;21.07;99.98;101778.16;6061736;19;20011;-72
2023/09/10 00:20:14;;;;;;;34.67;22.63;;;;;;;21.05;99.65;101780.91;6060953;19;20011;-71
2023/09/10 00:22:22;;;;;;;35.50;25.00;;;;;;;21.03;100.00;101775.66;6066345;19;20215;-72
2023/09/10 00:24:28;;;;;;;32.08;23.77;;;;;;;21.00;100.00;101773.22;6069258;19;20292;-73
2023/09/10 00:26:34;;;;;;;37.15;24.35;;;;;;;21.01;100.00;101776.72;6067414;19;20082;-73
2023/09/10 00:28:39;;;;;;;35.65;22.92;;;;;;;20.99;100.00;101773.34;6065611;19;20010;-72
2023/09/10 00:30:45;;;;;;;37.10;23.70;;;;;;;21.00;100.00;101775.03;6067002;19;20058;-70
2023/09/10 00:32:50;;;;;;;36.05;23.02;;;;;;;20.97;100.00;101770.75;6062765;19;20399;-71
2023/09/10 00:34:56;;;;;;;34.83;23.88;;;;;;;20.91;100.00;101770.34;6070296;19;20191;-72
2023/09/10 00:37:01;;;;;;;36.28;23.85;;;;;;;20.88;100.00;101768.75;6069514;19;20011;-70
2023/09/10 00:39:09;;;;;;;34.10;24.70;;;;;;;20.89;100.00;101765.09;6053405;19;20321;-71
2023/09/10 00:41:14;;;;;;;34.80;23.40;;;;;;;20.87;100.00;101764.34;6062573;19;20412;-71
2023/09/10 00:43:19;;;;;;;42.00;25.38;;;;;;;20.88;100.00;101765.19;6060652;19;20248;-71
2023/09/10 00:45:22;;;;;;;36.20;23.20;;;;;;;20.87;100.00;101760.81;6070513;19;20011;-71
2023/09/10 00:47:35;;;;;;;;;;;;;;;20.86;100.00;101767.13;6067849;19;20648;-70
2023/09/10 00:49:43;;;;;;;36.97;23.38;;;;;;;20.82;100.00;101763.81;6061302;19;20322;-71
2023/09/10 00:51:50;;;;;;;32.63;23.02;;;;;;;20.82;100.00;101753.97;6070289;19;21792;-71
2023/09/10 00:53:58;;;;;;;36.30;24.08;;;;;;;20.80;100.00;101753.25;6070366;19;20492;-71
2023/09/10 00:56:09;;;;;;;30.60;21.33;;;;;;;20.77;100.00;101761.47;6065508;19;20035;-72
2023/09/10 00:58:18;;;;;;;35.67;23.77;;;;;;;20.80;100.00;101765.72;6063680;19;20447;-71
2023/09/10 01:00:26;;;;;;;37.25;24.25;;;;;;;20.76;100.00;101762.41;6068302;19;20014;-70
2023/09/10 01:02:34;;;;;;;33.92;23.83;;;;;;;20.76;100.00;101753.56;6089442;19;20471;-73
2023/09/10 01:04:42;;;;;;;33.85;21.95;;;;;;;20.77;100.00;101760.59;6097664;19;20069;-71
2023/09/10 01:06:47;;;;;;;37.50;24.45;;;;;;;20.71;100.00;101753.88;6101718;19;20006;-72
2023/09/10 01:08:53;;;;;;;31.23;22.85;;;;;;;20.68;100.00;101758.56;6098479;19;20406;-71
2023/09/10 01:11:11;;;;;;;30.85;21.50;;;;;;;20.65;100.00;101764.97;6097384;19;20006;-71
2023/09/10 01:13:32;;;;;;;33.97;23.77;;;;;;;20.61;100.00;101764.31;6100134;19;20061;-72
2023/09/10 01:15:43;;;;;;;35.90;23.52;;;;;;;20.64;100.00;101765.06;6097285;19;20006;-72
2023/09/10 01:17:59;;;;;;;37.72;24.77;;;;;;;20.64;100.00;101765.06;6092572;19;21122;-71
2023/09/10 01:20:41;;;;;;;38.40;24.90;;;;;;;20.58;100.00;101763.69;6099358;19;20022;-72
2023/09/10 01:23:01;;;;;;;32.90;23.63;;;;;;;20.55;100.00;101762.06;6100219;19;20621;-71
2023/09/10 01:25:09;;;;;;;31.25;22.63;;;;;;;20.57;100.00;101764.66;6101024;19;20006;-71
2023/09/10 01:27:14;;;;;;;33.92;24.10;;;;;;;20.54;100.00;101768.38;6101399;19;20069;-71
2023/09/10 01:29:20;;;;;;;34.45;24.75;;;;;;;20.51;100.00;101765.88;6100313;19;20002;-71
2023/09/10 01:31:26;;;;;;;36.70;23.60;;;;;;;20.48;100.00;101766.06;6099069;19;20014;-72
2023/09/10 01:33:35;;;;;;;34.63;23.08;;;;;;;20.44;100.00;101759.25;6096156;19;20023;-72
2023/09/10 01:35:52;;;;;;;35.08;23.90;;;;;;;20.42;100.00;101757.63;6100313;19;20018;-71
2023/09/10 01:38:02;;;;;;;30.10;22.17;;;;;;;20.38;100.00;101757.00;6091053;19;20014;-71
2023/09/10 01:40:15;;;;;;;34.00;24.88;;;;;;;20.39;100.00;101761.38;6097219;19;20006;-71
2023/09/10 01:42:24;;;;;;;34.45;23.67;;;;;;;20.41;100.00;101759.47;6097869;19;20018;-71
2023/09/10 01:44:32;;;;;;;33.85;23.17;;;;;;;20.42;100.00;101761.16;6078386;19;20024;-73
2023/09/10 01:46:39;;;;;;;34.20;22.70;;;;;;;20.42;100.00;101763.81;6099861;19;20014;-71
2023/09/10 01:48:47;;;;;;;34.58;23.50;;;;;;;20.37;100.00;101761.47;6096518;19;20018;-71
2023/09/10 01:50:52;;;;;;;34.80;24.25;;;;;;;20.41;100.00;101769.28;6099532;19;20006;-71
2023/09/10 01:53:01;;;;;;;33.45;24.80;;;;;;;20.40;100.00;101771.06;6099187;19;20006;-71
2023/09/10 01:55:09;;;;;;;36.03;25.48;;;;;;;20.39;100.00;101766.72;6098634;19;20094;-72
2023/09/10 01:57:17;;;;;;;36.90;24.92;;;;;;;20.39;100.00;101764.03;6097310;19;20003;-72
2023/09/10 01:59:22;;;;;;;36.00;25.35;;;;;;;20.39;100.00;101766.72;6098172;19;20391;-71
2023/09/10 02:01:25;;;;;;;34.17;24.88;;;;;;;20.38;100.00;101765.00;6099458;19;20006;-71
2023/09/10 02:03:32;;;;;;;32.95;24.45;;;;;;;20.36;100.00;101764.25;6096937;19;20006;-72
2023/09/10 02:05:38;;;;;;;33.50;23.45;;;;;;;20.35;100.00;101770.53;6099354;19;20021;-71
2023/09/10 02:07:43;;;;;;;37.85;24.67;;;;;;;20.35;100.00;101765.19;6095520;19;20416;-71
2023/09/10 02:09:48;;;;;;;34.47;24.88;;;;;;;20.29;100.00;101770.94;6099999;19;20074;-71
2023/09/10 02:11:54;;;;;;;36.72;25.20;;;;;;;20.27;100.00;101772.84;6098913;19;20038;-71
2023/09/10 02:14:02;;;;;;;32.45;25.38;;;;;;;20.26;100.00;101779.16;6097108;19;20018;-71
2023/09/10 02:16:07;;;;;;;35.70;23.48;;;;;;;20.22;100.00;101767.84;6098208;19;20508;-71
2023/09/10 02:18:12;;;;;;;33.53;23.65;;;;;;;20.23;100.00;101769.53;6095957;19;20761;-71
2023/09/10 02:20:17;;;;;;;29.80;22.60;;;;;;;20.18;100.00;101767.19;6097037;19;20011;-71
2023/09/10 02:22:22;;;;;;;38.35;25.90;;;;;;;20.16;100.00;101766.41;6098217;19;20006;-72
2023/09/10 02:24:29;;;;;;;35.40;24.70;;;;;;;20.18;100.00;101772.50;6098694;19;20656;-71
2023/09/10 02:26:34;;;;;;;34.70;23.90;;;;;;;20.16;100.00;101774.41;6099447;19;20006;-71
2023/09/10 02:28:39;;;;;;;38.67;25.98;;;;;;;20.16;100.00;101771.75;6100484;19;20013;-71
2023/09/10 02:30:50;;;;;;;38.38;26.40;;;;;;;20.14;100.00;101765.69;6098370;19;20027;-71
2023/09/10 02:32:57;;;;;;;38.63;26.38;;;;;;;20.16;100.00;101755.75;6096616;19;20010;-72
2023/09/10 02:35:05;;;;;;;35.97;25.27;;;;;;;20.21;100.00;101754.59;6096935;19;20033;-71
2023/09/10 02:37:08;;;;;;;38.85;26.20;;;;;;;20.20;100.00;101755.56;6098579;19;20010;-72
2023/09/10 02:39:13;;;;;;;;;;;;;;;20.15;100.00;101751.38;6097976;19;20456;-71
2023/09/10 02:41:19;;;;;;;43.67;26.85;;;;;;;20.11;100.00;101752.50;6093346;19;19910;-72
2023/09/10 02:43:27;;;;;;;38.88;27.70;;;;;;;20.13;100.00;101745.28;6095543;19;20035;-70
2023/09/10 02:45:32;;;;;;;45.28;27.75;;;;;;;20.13;100.00;101749.75;6093270;19;20028;-73
2023/09/10 02:47:40;;;;;;;41.20;27.00;;;;;;;20.11;100.00;101755.19;6095360;19;20094;-70
2023/09/10 02:49:45;;;;;;;39.88;27.05;;;;;;;20.08;100.00;101743.88;6098809;19;20011;-70
2023/09/10 02:51:51;;;;;;;39.70;29.05;;;;;;;20.06;100.00;101753.78;6094660;19;20014;-71
2023/09/10 02:53:59;;;;;;;46.80;29.48;;;;;;;20.02;100.00;101750.47;6094894;19;20249;-71
2023/09/10 02:56:02;;;;;;;43.92;29.05;;;;;;;20.03;100.00;101751.31;6093808;19;20121;-72
2023/09/10 02:58:08;;;;;;;40.45;28.08;;;;;;;19.98;100.00;101756.09;6095473;19;20010;-71
2023/09/10 03:00:16;;;;;;;44.47;30.13;;;;;;;19.95;100.00;101750.00;6096877;19;20056;-72
2023/09/10 03:02:22;;;;;;;42.30;29.83;;;;;;;19.96;100.00;101753.56;6094629;19;20043;-71
2023/09/10 03:04:32;;;;;;;47.75;30.23;;;;;;;20.03;100.00;101752.16;6096264;19;20755;-71
2023/09/10 03:06:51;;;;;;;43.58;29.70;;;;;;;19.96;100.00;101756.22;6074330;19;20006;-73
2023/09/10 03:08:58;;;;;;;46.28;31.10;;;;;;;19.96;100.00;101753.56;6076444;19;20022;-72
2023/09/10 03:11:04;;;;;;;43.75;29.35;;;;;;;19.95;100.00;101763.34;6092383;19;20007;-72
2023/09/10 03:13:24;;;;;;;47.47;29.65;;;;;;;19.93;100.00;101748.38;6078649;19;20396;-71
2023/09/10 03:15:34;;;;;;;46.63;31.67;;;;;;;19.93;100.00;101748.38;6092633;19;20159;-72
2023/09/10 03:17:39;;;;;;;48.65;32.03;;;;;;;19.91;100.00;101751.19;6103459;19;20002;-70
2023/09/10 03:20:15;;;;;;;48.67;31.70;;;;;;;19.90;100.00;101741.44;6077925;19;20010;-72
2023/09/10 03:22:37;;;;;;;48.85;31.70;;;;;;;19.99;100.00;101740.00;6100901;19;20013;-73
2023/09/10 03:25:03;;;;;;;50.65;33.22;;;;;;;20.05;100.00;101742.25;6105411;19;20010;-73
2023/09/10 03:27:12;;;;;;;47.38;31.95;;;;;;;20.08;100.00;101742.06;6087445;19;20929;-71
2023/09/10 03:29:41;;;;;;;48.45;33.08;;;;;;;20.05;100.00;101739.59;6102844;19;20010;-72
2023/09/10 03:31:46;;;;;;;48.83;30.30;;;;;;;20.04;100.00;101735.22;6100204;19;20036;-72
2023/09/10 03:33:51;;;;;;;48.22;32.63;;;;;;;20.04;100.00;101732.56;6100624;19;20241;-71
2023/09/10 03:35:57;;;;;;;59.05;34.85;;;;;;;19.98;100.00;101732.94;6101965;19;20010;-71
2023/09/10 03:38:05;;;;;;;50.25;33.35;;;;;;;20.02;100.00;101729.13;6100322;19;20014;-72
2023/09/10 03:40:12;;;;;;;51.20;32.35;;;;;;;20.00;100.00;101733.69;6103335;19;20098;-71
2023/09/10 03:42:17;;;;;;;48.70;32.60;;;;;;;20.02;100.00;101731.78;6100103;19;20685;-71
2023/09/10 03:44:22;;;;;;;55.50;34.60;;;;;;;20.05;100.00;101731.59;6103815;19;20021;-71
2023/09/10 03:46:27;;;;;;;49.42;32.95;;;;;;;20.01;100.00;101732.75;6103842;19;20011;-72
2023/09/10 03:48:33;;;;;;;48.40;32.63;;;;;;;19.95;100.00;101734.00;6100554;19;20015;-71
2023/09/10 03:50:39;;;;;;;53.95;33.60;;;;;;;19.98;100.00;101730.28;6100883;19;20014;-72
2023/09/10 03:52:45;;;;;;;53.15;33.72;;;;;;;20.02;100.00;101734.47;6103379;19;20013;-72
2023/09/10 03:54:55;;;;;;;51.35;32.90;;;;;;;19.95;100.00;101728.66;6102466;19;20082;-71
2023/09/10 03:57:00;;;;;;;54.83;34.92;;;;;;;20.00;100.00;101725.69;6102163;19;20007;-71
2023/09/10 03:59:05;;;;;;;56.90;36.35;;;;;;;19.94;100.00;101728.78;6102786;19;20010;-72
2023/09/10 04:01:15;;;;;;;55.70;34.78;;;;;;;19.91;100.00;101732.50;6105375;19;20048;-72
2023/09/10 04:03:20;;;;;;;59.03;35.85;;;;;;;19.90;100.00;101733.44;6102405;19;21189;-71
2023/09/10 04:05:28;;;;;;;53.97;34.97;;;;;;;19.94;100.00;101734.13;6101828;19;20011;-72
2023/09/10 04:07:34;;;;;;;54.85;34.95;;;;;;;19.94;100.00;101729.63;6098490;19;20717;-72
2023/09/10 04:09:41;;;;;;;58.75;37.10;;;;;;;19.83;100.00;101732.16;6098486;19;20468;-72
2023/09/10 04:11:49;;;;;;;53.78;35.67;;;;;;;19.88;100.00;101726.50;6097488;19;20530;-72
2023/09/10 04:13:54;;;;;;;60.55;36.80;;;;;;;19.85;100.00;101732.91;6101793;19;20513;-71
2023/09/10 04:15:59;;;;;;;55.13;36.22;;;;;;;19.85;100.00;101734.69;6102098;19;20011;-71
2023/09/10 04:18:08;;;;;;;62.75;38.75;;;;;;;19.82;100.00;101740.25;6100987;19;20015;-73
2023/09/10 04:20:19;;;;;;;62.47;37.78;;;;;;;19.82;100.00;101737.56;6099300;19;20030;-71
2023/09/10 04:22:25;;;;;;;55.50;35.42;;;;;;;19.83;100.00;101742.81;6103373;19;20344;-72
2023/09/10 04:24:33;;;;;;;61.03;37.47;;;;;;;19.78;100.00;101731.59;6101069;19;20014;-72
2023/09/10 04:26:40;;;;;;;59.08;37.92;;;;;;;19.74;100.00;101736.25;6101859;19;20019;-72
2023/09/10 04:28:49;;;;;;;59.38;37.60;;;;;;;19.74;100.00;101733.59;6103123;19;20022;-73
2023/09/10 04:30:55;;;;;;;56.92;38.17;;;;;;;19.70;100.00;101737.44;6100345;19;20379;-71
2023/09/10 04:33:00;;;;;;;61.97;36.50;;;;;;;19.72;100.00;101730.19;6099973;19;20481;-72
2023/09/10 04:35:07;;;;;;;62.75;37.13;;;;;;;19.68;100.00;101733.16;6099928;19;20358;-72
2023/09/10 04:37:13;;;;;;;59.28;37.47;;;;;;;19.66;100.00;101730.56;6102201;19;20424;-72
2023/09/10 04:39:19;;;;;;;58.65;36.90;;;;;;;19.70;100.00;101728.56;6103914;19;20694;-72
2023/09/10 04:41:31;;;;;;;69.28;40.42;;;;;;;19.65;100.00;101727.97;6087290;19;20009;-71
2023/09/10 04:43:39;;;;;;;65.13;39.05;;;;;;;19.61;100.00;101732.63;6102021;19;20084;-72
2023/09/10 04:45:49;;;;;;;68.25;40.33;;;;;;;19.64;100.00;101732.47;6101927;19;20475;-71
2023/09/10 04:47:54;;;;;;;58.08;36.08;;;;;;;19.63;100.00;101730.75;6096726;19;20021;-72
2023/09/10 04:50:03;;;;;;;63.10;38.33;;;;;;;19.60;100.00;101741.59;6100690;19;20250;-72
2023/09/10 04:52:10;;;;;;;59.25;36.95;;;;;;;19.63;100.00;101735.22;6101213;19;20014;-74
2023/09/10 04:54:16;;;;;;;57.53;37.45;;;;;;;19.63;100.00;101736.06;6101174;19;20062;-72
2023/09/10 04:56:21;;;;;;;62.13;39.55;;;;;;;19.61;100.00;101734.44;6079604;19;20013;-72
2023/09/10 04:58:27;;;;;;;62.50;40.03;;;;;;;19.54;100.00;101739.34;6099666;19;20011;-71
2023/09/10 05:00:35;;;;;;;63.20;39.58;;;;;;;19.54;100.00;101739.34;6098669;19;20014;-71
2023/09/10 05:02:46;;;;;;;63.70;37.47;;;;;;;19.56;100.00;101744.56;6098598;19;20077;-72
2023/09/10 05:04:52;;;;;;;63.55;38.92;;;;;;;19.57;100.00;101736.47;6097492;19;20042;-72
2023/09/10 05:06:58;;;;;;;62.75;37.47;;;;;;;19.58;100.00;101737.31;6096836;19;20130;-72
2023/09/10 05:09:04;;;;;;;65.70;39.17;;;;;;;19.53;100.00;101737.59;6098635;19;20033;-72
2023/09/10 05:11:09;;;;;;;66.90;37.72;;;;;;;19.54;100.00;101739.34;6098693;19;20036;-71
2023/09/10 05:13:14;;;;;;;60.75;39.38;;;;;;;19.53;100.00;101743.78;6100927;19;20040;-72
2023/09/10 05:15:20;;;;;;;65.57;38.35;;;;;;;19.51;100.00;101736.88;6102534;19;20010;-72
2023/09/10 05:17:25;;;;;;;66.47;40.83;;;;;;;19.51;100.00;101736.88;6099880;19;20018;-71
2023/09/10 05:19:34;;;;;;;62.75;39.00;;;;;;;19.56;100.00;101729.41;6091194;19;20078;-71
2023/09/10 05:21:43;;;;;;;66.15;38.00;;;;;;;19.53;100.00;101735.78;6099747;19;20331;-71
2023/09/10 05:23:48;;;;;;;61.10;38.95;;;;;;;19.53;100.00;101732.28;6099432;19;20015;-72
2023/09/10 05:25:55;;;;;;;68.20;39.25;;;;;;;19.55;100.00;101732.19;6078451;19;20006;-72
2023/09/10 05:28:00;;;;;;;65.30;40.65;;;;;;;19.53;100.00;101740.28;6099457;19;20506;-71
2023/09/10 05:30:06;;;;;;;71.53;42.30;;;;;;;19.57;100.00;101733.81;6102721;19;20025;-72
2023/09/10 05:32:11;;;;;;;65.45;39.58;;;;;;;19.54;100.00;101736.69;6097148;19;20467;-72
2023/09/10 05:34:17;;;;;;;68.15;40.00;;;;;;;19.55;100.00;101733.03;6098060;19;20588;-72
2023/09/10 05:36:24;;;;;;;69.57;40.67;;;;;;;19.52;100.00;101730.56;6099884;19;20006;-72
2023/09/10 05:38:32;;;;;;;63.08;38.97;;;;;;;19.51;100.00;101731.53;6098548;19;20224;-73
2023/09/10 05:40:38;;;;;;;65.90;42.53;;;;;;;19.53;100.00;101740.28;6098397;19;20110;-71
2023/09/10 05:42:46;;;;;;;65.45;41.45;;;;;;;19.53;100.00;101740.28;6100128;19;20052;-71
2023/09/10 05:45:34;;;;;;;72.00;40.50;;;;;;;19.53;100.00;101740.28;6097813;19;20436;-72
2023/09/10 05:47:40;;;;;;;67.75;39.72;;;;;;;19.62;100.00;101744.19;6096398;19;20010;-73
2023/09/10 05:49:55;;;;;;;67.18;41.50;;;;;;;19.65;100.00;101750.16;6096460;19;20011;-71
2023/09/10 05:52:04;;;;;;;70.88;39.55;;;;;;;19.73;100.00;101747.88;6099278;19;20014;-73
2023/09/10 05:54:09;;;;;;;71.57;41.92;;;;;;;19.78;100.00;101744.94;6100099;19;20010;-71
2023/09/10 05:56:15;;;;;;;67.55;39.50;;;;;;;19.85;100.00;101750.72;6100300;19;20097;-71
2023/09/10 05:58:20;;;;;;;68.50;41.05;;;;;;;19.90;100.00;101736.09;6099550;19;20043;-71
2023/09/10 06:00:29;;;;;;;70.63;41.42;;;;;;;19.93;100.00;101746.59;6102069;19;20544;-71
2023/09/10 06:02:34;;;;;;;67.07;42.80;;;;;;;20.00;100.00;101747.03;6096334;19;20027;-71
2023/09/10 06:04:39;;;;;;;67.13;40.47;;;;;;;20.07;100.00;101751.03;6099534;19;20559;-71
2023/09/10 06:06:48;;;;;;;66.90;40.72;;;;;;;20.08;100.00;101747.38;6095881;19;20006;-71
2023/09/10 06:08:59;;;;;;;63.97;38.90;;;;;;;20.18;100.00;101751.16;6100236;19;20035;-71
2023/09/10 06:11:04;;;;;;;68.15;40.40;;;;;;;20.25;100.00;101753.41;6098155;19;20507;-72
2023/09/10 06:13:09;;;;;;;66.25;40.80;;;;;;;20.34;100.00;101753.66;6099741;19;20007;-71
2023/09/10 06:15:15;;;;;;;67.40;39.67;;;;;;;20.41;100.00;101751.44;6100458;19;20443;-71
2023/09/10 06:17:20;;;;;;;68.40;40.55;;;;;;;20.47;100.00;101759.03;6096126;19;20011;-71
2023/09/10 06:19:25;;;;;;;62.75;40.88;;;;;;;20.50;100.00;101758.81;6098692;19;20643;-72
2023/09/10 06:21:31;;;;;;;65.65;40.75;;;;;;;20.59;100.00;101762.72;6095519;19;20023;-70
2023/09/10 06:23:37;;;;;;;68.15;40.22;;;;;;;20.66;100.00;101768.50;6098097;19;20006;-71
2023/09/10 06:25:46;;;;;;;63.20;38.17;;;;;;;20.74;100.00;101764.31;6097195;19;20056;-70
2023/09/10 06:27:55;;;;;;;66.30;39.92;;;;;;;20.83;100.00;101773.53;6097672;19;20042;-72
2023/09/10 06:30:00;;;;;;;68.85;39.20;;;;;;;20.94;100.00;101768.31;6101042;19;20010;-71
2023/09/10 06:32:06;;;;;;;68.03;39.72;;;;;;;20.98;100.00;101767.13;6097469;19;20010;-71
2023/09/10 06:34:17;;;;;;;68.82;40.33;;;;;;;21.01;99.60;101768.72;6098977;19;20006;-71
2023/09/10 06:36:23;;;;;;;67.93;40.17;;;;;;;21.05;99.82;101775.56;6098385;19;20856;-70
2023/09/10 06:38:31;;;;;;;67.10;40.20;;;;;;;21.11;98.88;101776.97;6101313;19;20002;-70
2023/09/10 06:40:36;;;;;;;70.30;41.63;;;;;;;21.19;98.60;101778.13;6099679;19;20011;-71
2023/09/10 06:42:46;;;;;;;65.55;39.60;;;;;;;21.22;98.13;101777.94;6102378;19;20006;-71
2023/09/10 06:44:51;;;;;;;66.43;37.72;;;;;;;21.31;97.79;101776.41;6103784;19;20086;-72
2023/09/10 06:46:58;;;;;;;64.45;39.03;;;;;;;21.41;97.29;101787.34;6101601;19;20006;-71
2023/09/10 06:49:03;;;;;;;62.17;39.92;;;;;;;21.50;96.73;101780.47;6103927;19;20127;-71
2023/09/10 06:51:09;;;;;;;67.93;40.60;;;;;;;21.59;96.45;101783.34;6102847;19;20314;-71
2023/09/10 06:53:15;;;;;;;59.75;39.13;;;;;;;21.66;95.89;101787.28;6102457;19;20300;-71
2023/09/10 06:55:18;;;;;;;62.85;39.17;;;;;;;21.74;95.22;101788.56;6103615;19;20010;-71
2023/09/10 06:57:29;;;;;;;69.07;39.30;;;;;;;21.83;94.33;101778.03;6104154;19;20043;-70
2023/09/10 06:59:37;;;;;;;61.67;39.72;;;;;;;22.02;93.67;101788.25;6100300;19;20129;-69
2023/09/10 07:01:47;;;;;;;61.72;39.28;;;;;;;22.05;93.79;101776.44;6102651;19;20013;-69
2023/09/10 07:03:52;;;;;;;64.00;39.28;;;;;;;22.14;93.41;101783.78;6104189;19;20324;-71
2023/09/10 07:05:58;;;;;;;54.92;37.38;;;;;;;22.16;92.54;101781.00;6104489;19;20029;-71
2023/09/10 07:08:13;;;;;;;61.65;39.35;;;;;;;22.27;92.72;101781.94;6103887;19;20022;-71
2023/09/10 07:10:19;;;;;;;65.80;38.35;;;;;;;22.37;91.21;101789.28;6103504;19;20022;-70
2023/09/10 07:12:24;;;;;;;59.53;36.40;;;;;;;22.41;91.81;101788.06;6104222;19;20403;-71
2023/09/10 07:14:29;;;;;;;62.67;37.97;;;;;;;22.68;90.33;101780.63;6105687;19;20253;-71
2023/09/10 07:16:37;;;;;;;52.95;35.42;;;;;;;22.82;89.50;101779.56;6102119;19;20006;-71
2023/09/10 07:18:44;;;;;;;60.00;36.35;;;;;;;22.91;89.16;101775.31;6103841;19;20043;-71
2023/09/10 07:20:59;;;;;;;60.95;37.22;;;;;;;22.94;88.73;101780.44;6104971;19;20059;-70
2023/09/10 07:23:07;;;;;;;54.92;36.75;;;;;;;23.17;87.79;101776.84;6105238;19;20032;-70
2023/09/10 07:25:12;;;;;;;58.95;36.72;;;;;;;23.39;87.59;101772.44;6105133;19;20473;-71
2023/09/10 07:27:20;;;;;;;59.13;36.33;;;;;;;23.49;86.52;101781.47;6104010;19;20136;-71
2023/09/10 07:29:25;;;;;;;54.15;34.22;;;;;;;23.59;85.92;101781.56;6100162;19;20010;-71
2023/09/10 07:31:36;;;;;;;54.80;34.05;;;;;;;23.73;84.86;101788.56;6098443;19;20441;-70
2023/09/10 07:33:42;;;;;;;62.15;37.50;;;;;;;23.84;84.34;101769.72;6103528;19;20626;-70
2023/09/10 07:35:47;;;;;;;60.22;36.30;;;;;;;23.75;83.95;101783.88;6103195;19;20010;-71
2023/09/10 07:37:54;;;;;;;58.53;35.72;;;;;;;23.93;83.78;101785.06;6103090;19;20167;-71
2023/09/10 07:40:04;;;;;;;57.72;35.40;;;;;;;24.14;82.97;101782.44;6100526;19;20261;-70
2023/09/10 07:42:07;;;;;;;58.47;34.22;;;;;;;24.12;83.20;101788.91;6099867;19;20040;-70
2023/09/10 07:44:11;;;;;;;;;;;;;;;24.41;81.89;101781.97;6104613;19;20022;-70
2023/09/10 07:46:17;;;;;;;49.92;31.20;;;;;;;24.61;81.60;101790.22;6101478;19;19945;-70
2023/09/10 07:48:25;;;;;;;53.25;34.05;;;;;;;24.70;80.27;101779.53;6098218;19;20044;-71
2023/09/10 07:50:31;;;;;;;55.78;35.40;;;;;;;24.68;80.33;101786.88;6102999;19;20018;-70
2023/09/10 07:52:33;;;;;;;50.08;31.95;;;;;;;24.88;79.67;101782.47;6103196;19;20550;-70
2023/09/10 07:54:39;;;;;;;53.50;33.90;;;;;;;25.05;79.07;101782.84;6101136;19;20015;-70
2023/09/10 07:56:45;;;;;;;51.47;32.10;;;;;;;25.23;78.55;101792.03;6103158;19;20369;-70
2023/09/10 07:58:53;;;;;;;52.80;33.50;;;;;;;25.30;78.02;101786.94;6102728;19;20006;-71
2023/09/10 08:01:00;;;;;;;58.78;33.45;;;;;;;25.46;77.13;101786.44;6099851;19;20582;-71
2023/09/10 08:03:06;;;;;;;51.50;32.22;;;;;;;25.60;75.86;101786.94;6101494;19;20035;-71
2023/09/10 08:05:15;;;;;;;49.83;32.38;;;;;;;25.47;76.20;101793.53;6099085;19;20305;-71
2023/09/10 08:07:20;;;;;;;48.15;30.83;;;;;;;25.63;76.89;101793.88;6100599;19;20010;-71
2023/09/10 08:09:25;;;;;;;49.58;31.38;;;;;;;25.74;76.20;101801.84;6101770;19;20010;-71
2023/09/10 08:11:32;;;;;;;50.75;31.75;;;;;;;25.62;76.00;101797.56;6097877;19;20465;-71
2023/09/10 08:13:37;;;;;;;53.17;31.65;;;;;;;25.88;74.87;101802.47;6098651;19;20024;-70
2023/09/10 08:15:50;;;;;;;49.97;31.55;;;;;;;26.13;73.62;101795.72;6101090;19;20010;-71
2023/09/10 08:18:00;;;;;;;46.97;30.95;;;;;;;26.43;73.50;101786.63;6099879;19;20416;-70
2023/09/10 08:20:16;;;;;;;45.13;27.33;;;;;;;26.69;72.70;101786.91;6099706;19;20011;-71
2023/09/10 08:22:26;;;;;;;42.15;28.33;;;;;;;26.84;71.81;101784.63;6098608;19;20109;-71
2023/09/10 08:24:31;;;;;;;47.75;29.35;;;;;;;27.01;71.08;101786.53;6099570;19;20006;-71
2023/09/10 08:26:36;;;;;;;46.25;28.27;;;;;;;27.11;71.15;101790.06;6101555;19;20006;-73
2023/09/10 08:28:44;;;;;;;44.90;27.15;;;;;;;27.26;71.08;101789.63;6094642;19;20014;-73
2023/09/10 08:30:51;;;;;;;39.95;26.35;;;;;;;27.22;69.93;101788.22;6099521;19;20023;-73
2023/09/10 08:33:00;;;;;;;43.45;27.30;;;;;;;27.53;68.97;101784.22;6099082;19;20010;-73
2023/09/10 08:35:06;;;;;;;46.60;29.80;;;;;;;27.49;69.84;101777.44;6099589;19;20392;-72
2023/09/10 08:37:15;;;;;;;42.45;27.92;;;;;;;27.34;68.46;101777.09;6079658;19;20011;-72
2023/09/10 08:39:20;;;;;;;42.35;27.77;;;;;;;27.40;69.52;101775.63;6098891;19;20014;-72
2023/09/10 08:41:39;;;;;;;41.67;28.52;;;;;;;27.48;68.82;101772.19;6101699;19;20007;-71
2023/09/10 08:43:52;;;;;;;43.90;28.20;;;;;;;27.41;69.04;101765.69;6096244;19;20047;-72
2023/09/10 08:46:02;;;;;;;47.88;27.60;;;;;;;27.83;67.73;101766.03;6099144;19;20867;-72
2023/09/10 08:48:08;;;;;;;45.65;29.25;;;;;;;27.51;68.70;101774.59;6099221;19;20645;-72
2023/09/10 08:50:19;;;;;;;41.78;27.83;;;;;;;27.89;67.59;101768.13;6099322;19;20039;-72
2023/09/10 08:52:29;;;;;;;39.63;25.50;;;;;;;28.31;66.74;101766.69;6099198;19;20920;-73
2023/09/10 08:54:34;;;;;;;42.20;26.25;;;;;;;28.20;66.41;101767.75;6100555;19;20019;-73
2023/09/10 08:56:45;;;;;;;37.55;23.77;;;;;;;28.53;nan;101770.75;6099793;19;20055;-72
2023/09/10 08:58:53;;;;;;;32.00;21.85;;;;;;;28.67;64.87;101765.66;6096569;19;20584;-72
2023/09/10 09:01:02;;;;;;;40.00;24.10;;;;;;;28.42;64.29;101761.03;6101710;19;20027;-71
2023/09/10 09:03:07;;;;;;;32.55;22.15;;;;;;;28.70;63.90;101764.47;6103307;19;20078;-72
2023/09/10 09:05:14;;;;;;;35.63;21.55;;;;;;;28.84;62.97;101766.59;6098717;19;20509;-71
2023/09/10 09:07:33;;;;;;;38.40;23.58;;;;;;;28.78;63.12;101769.06;6095753;19;20011;-71
2023/09/10 09:09:45;;;;;;;38.42;21.77;;;;;;;28.80;63.22;101769.75;6099533;19;20011;-71
2023/09/10 09:11:56;;;;;;;29.40;19.38;;;;;;;28.91;63.39;101774.06;6081354;19;20029;-72
2023/09/10 09:14:10;;;;;;;28.98;18.50;;;;;;;29.16;62.58;101775.09;6095400;19;20355;-72
2023/09/10 09:16:24;;;;;;;31.63;19.33;;;;;;;29.04;62.11;101767.25;6102829;19;20610;-72
2023/09/10 09:18:32;;;;;;;33.33;20.67;;;;;;;29.18;61.49;101767.66;6102684;19;20381;-72
2023/09/10 09:20:37;;;;;;;31.20;20.85;;;;;;;29.07;62.28;101769.63;6103250;19;20684;-72
2023/09/10 09:22:49;;;;;;;28.40;18.10;;;;;;;29.45;60.48;101769.28;6102454;19;20010;-71
2023/09/10 09:24:56;;;;;;;28.50;19.02;;;;;;;29.30;60.97;101771.75;6099624;19;20056;-72
2023/09/10 09:27:03;;;;;;;28.90;18.88;;;;;;;29.67;59.72;101770.56;6100310;19;20018;-71
2023/09/10 09:29:15;;;;;;;29.27;18.30;;;;;;;29.81;58.86;101769.94;6102228;19;20455;-71
2023/09/10 09:31:23;;;;;;;27.45;18.27;;;;;;;29.89;59.50;101761.00;6101593;19;20014;-72
2023/09/10 09:33:29;;;;;;;28.77;20.15;;;;;;;30.09;58.76;101765.06;6099212;19;20342;-72
2023/09/10 09:35:35;;;;;;;31.58;18.83;;;;;;;29.89;58.43;101766.41;6101439;19;20433;-71
2023/09/10 09:37:46;;;;;;;27.25;18.92;;;;;;;29.81;59.78;101759.09;6099834;19;20039;-72